sensor_id;sensor_type;location;lat;lon;timestamp;P1;durP1;ratioP1;P2;durP2;ratioP2
48875;SDS011;34689;51.644;5.618;2022-08-16T00:01:10;4.35;;;3.22;;
48875;SDS011;34689;51.644;5.618;2022-08-16T00:03:38;4.88;;;2.97;;
48875;SDS011;34689;51.644;5.618;2022-08-16T00:06:04;5.32;;;3.20;;
48875;SDS011;34689;51.644;5.618;2022-08-16T00:08:30;4.85;;;2.33;;
48875;SDS011;34689;51.644;5.618;2022-08-16T00:10:56;3.88;;;3.15;;
48875;SDS011;34689;51.644;5.618;2022-08-16T00:13:22;3.50;;;2.50;;
48875;SDS011;34689;51.644;5.618;2022-08-16T00:15:48;3.70;;;2.75;;
48875;SDS011;34689;51.644;5.618;2022-08-16T00:18:15;4.07;;;2.90;;
48875;SDS011;34689;51.644;5.618;2022-08-16T00:20:43;4.63;;;3.17;;
48875;SDS011;34689;51.644;5.618;2022-08-16T00:23:11;4.05;;;2.88;;
48875;SDS011;34689;51.644;5.618;2022-08-16T00:25:38;5.43;;;2.88;;
48875;SDS011;34689;51.644;5.618;2022-08-16T00:28:04;4.43;;;3.28;;
48875;SDS011;34689;51.644;5.618;2022-08-16T00:30:32;5.50;;;3.55;;
48875;SDS011;34689;51.644;5.618;2022-08-16T00:32:59;3.90;;;3.10;;
48875;SDS011;34689;51.644;5.618;2022-08-16T00:35:30;3.28;;;2.95;;
48875;SDS011;34689;51.644;5.618;2022-08-16T00:37:58;3.55;;;3.10;;
48875;SDS011;34689;51.644;5.618;2022-08-16T00:40:32;3.95;;;3.08;;
48875;SDS011;34689;51.644;5.618;2022-08-16T00:43:15;4.43;;;3.33;;
48875;SDS011;34689;51.644;5.618;2022-08-16T00:46:06;4.10;;;3.40;;
48875;SDS011;34689;51.644;5.618;2022-08-16T00:48:43;3.88;;;2.88;;
48875;SDS011;34689;51.644;5.618;2022-08-16T00:51:10;4.57;;;3.35;;
48875;SDS011;34689;51.644;5.618;2022-08-16T00:53:38;4.13;;;3.50;;
48875;SDS011;34689;51.644;5.618;2022-08-16T00:56:06;4.88;;;3.85;;
48875;SDS011;34689;51.644;5.618;2022-08-16T00:58:36;5.07;;;3.67;;
48875;SDS011;34689;51.644;5.618;2022-08-16T01:01:05;5.65;;;4.25;;
48875;SDS011;34689;51.644;5.618;2022-08-16T01:03:32;4.53;;;3.40;;
48875;SDS011;34689;51.644;5.618;2022-08-16T01:05:59;4.32;;;3.67;;
48875;SDS011;34689;51.644;5.618;2022-08-16T01:08:26;4.82;;;3.85;;
48875;SDS011;34689;51.644;5.618;2022-08-16T01:10:53;5.13;;;3.85;;
48875;SDS011;34689;51.644;5.618;2022-08-16T01:13:20;5.45;;;3.88;;
48875;SDS011;34689;51.644;5.618;2022-08-16T01:15:55;5.53;;;4.35;;
48875;SDS011;34689;51.644;5.618;2022-08-16T01:18:39;7.65;;;4.28;;
48875;SDS011;34689;51.644;5.618;2022-08-16T01:26:18;7.20;;;4.30;;
48875;SDS011;34689;51.644;5.618;2022-08-16T01:28:44;7.85;;;4.95;;
48875;SDS011;34689;51.644;5.618;2022-08-16T01:31:12;5.20;;;3.63;;
48875;SDS011;34689;51.644;5.618;2022-08-16T01:33:41;5.85;;;4.20;;
48875;SDS011;34689;51.644;5.618;2022-08-16T01:36:07;5.47;;;3.85;;
48875;SDS011;34689;51.644;5.618;2022-08-16T01:38:35;3.45;;;2.83;;
48875;SDS011;34689;51.644;5.618;2022-08-16T01:41:11;5.18;;;3.65;;
48875;SDS011;34689;51.644;5.618;2022-08-16T01:43:41;4.45;;;3.53;;
48875;SDS011;34689;51.644;5.618;2022-08-16T01:46:17;4.88;;;4.07;;
48875;SDS011;34689;51.644;5.618;2022-08-16T01:48:45;4.90;;;3.72;;
48875;SDS011;34689;51.644;5.618;2022-08-16T01:51:11;6.53;;;3.83;;
48875;SDS011;34689;51.644;5.618;2022-08-16T01:53:38;3.90;;;3.30;;
48875;SDS011;34689;51.644;5.618;2022-08-16T01:56:05;5.25;;;3.95;;
48875;SDS011;34689;51.644;5.618;2022-08-16T01:58:32;5.13;;;3.78;;
48875;SDS011;34689;51.644;5.618;2022-08-16T02:00:57;4.35;;;3.55;;
48875;SDS011;34689;51.644;5.618;2022-08-16T02:03:23;5.75;;;4.22;;
48875;SDS011;34689;51.644;5.618;2022-08-16T02:05:49;4.50;;;3.45;;
48875;SDS011;34689;51.644;5.618;2022-08-16T02:08:15;5.38;;;3.70;;
48875;SDS011;34689;51.644;5.618;2022-08-16T02:10:41;4.97;;;3.92;;
48875;SDS011;34689;51.644;5.618;2022-08-16T02:13:07;4.05;;;3.33;;
48875;SDS011;34689;51.644;5.618;2022-08-16T02:15:33;6.65;;;3.80;;
48875;SDS011;34689;51.644;5.618;2022-08-16T02:18:00;5.80;;;4.07;;
48875;SDS011;34689;51.644;5.618;2022-08-16T02:20:28;6.93;;;4.10;;
48875;SDS011;34689;51.644;5.618;2022-08-16T02:22:58;5.28;;;4.05;;
48875;SDS011;34689;51.644;5.618;2022-08-16T02:25:25;5.07;;;3.90;;
48875;SDS011;34689;51.644;5.618;2022-08-16T02:27:51;5.80;;;4.10;;
48875;SDS011;34689;51.644;5.618;2022-08-16T02:30:22;4.10;;;3.42;;
48875;SDS011;34689;51.644;5.618;2022-08-16T02:32:51;5.70;;;3.78;;
48875;SDS011;34689;51.644;5.618;2022-08-16T02:35:18;5.45;;;3.95;;
48875;SDS011;34689;51.644;5.618;2022-08-16T02:37:44;4.85;;;3.53;;
48875;SDS011;34689;51.644;5.618;2022-08-16T02:40:12;5.00;;;3.33;;
48875;SDS011;34689;51.644;5.618;2022-08-16T02:42:41;5.85;;;3.90;;
48875;SDS011;34689;51.644;5.618;2022-08-16T02:45:11;6.03;;;4.15;;
48875;SDS011;34689;51.644;5.618;2022-08-16T02:47:37;5.82;;;4.35;;
48875;SDS011;34689;51.644;5.618;2022-08-16T02:50:04;6.20;;;4.15;;
48875;SDS011;34689;51.644;5.618;2022-08-16T02:52:31;5.40;;;3.70;;
48875;SDS011;34689;51.644;5.618;2022-08-16T02:54:57;7.45;;;4.18;;
48875;SDS011;34689;51.644;5.618;2022-08-16T02:57:23;5.60;;;3.72;;
48875;SDS011;34689;51.644;5.618;2022-08-16T02:59:50;6.22;;;3.47;;
48875;SDS011;34689;51.644;5.618;2022-08-16T03:02:16;12.05;;;3.67;;
48875;SDS011;34689;51.644;5.618;2022-08-16T03:04:42;5.18;;;3.83;;
48875;SDS011;34689;51.644;5.618;2022-08-16T03:07:09;6.35;;;3.40;;
48875;SDS011;34689;51.644;5.618;2022-08-16T03:09:35;5.30;;;3.58;;
48875;SDS011;34689;51.644;5.618;2022-08-16T03:12:02;5.97;;;3.20;;
48875;SDS011;34689;51.644;5.618;2022-08-16T03:14:29;5.35;;;4.45;;
48875;SDS011;34689;51.644;5.618;2022-08-16T03:16:55;5.40;;;3.42;;
48875;SDS011;34689;51.644;5.618;2022-08-16T03:19:21;4.65;;;3.05;;
48875;SDS011;34689;51.644;5.618;2022-08-16T03:21:47;5.50;;;3.67;;
48875;SDS011;34689;51.644;5.618;2022-08-16T03:24:13;4.95;;;3.60;;
48875;SDS011;34689;51.644;5.618;2022-08-16T03:26:39;4.53;;;3.13;;
48875;SDS011;34689;51.644;5.618;2022-08-16T03:29:05;4.60;;;3.20;;
48875;SDS011;34689;51.644;5.618;2022-08-16T03:31:31;7.82;;;4.00;;
48875;SDS011;34689;51.644;5.618;2022-08-16T03:33:56;4.75;;;3.10;;
48875;SDS011;34689;51.644;5.618;2022-08-16T03:36:22;4.75;;;3.35;;
48875;SDS011;34689;51.644;5.618;2022-08-16T03:38:49;5.18;;;3.28;;
48875;SDS011;34689;51.644;5.618;2022-08-16T03:41:15;4.35;;;3.38;;
48875;SDS011;34689;51.644;5.618;2022-08-16T03:43:41;7.18;;;4.00;;
48875;SDS011;34689;51.644;5.618;2022-08-16T03:46:07;5.55;;;3.53;;
48875;SDS011;34689;51.644;5.618;2022-08-16T03:48:36;3.78;;;2.92;;
48875;SDS011;34689;51.644;5.618;2022-08-16T03:51:03;6.90;;;3.70;;
48875;SDS011;34689;51.644;5.618;2022-08-16T03:53:32;4.38;;;3.70;;
48875;SDS011;34689;51.644;5.618;2022-08-16T03:55:59;3.72;;;3.33;;
48875;SDS011;34689;51.644;5.618;2022-08-16T03:58:25;3.40;;;2.67;;
48875;SDS011;34689;51.644;5.618;2022-08-16T04:00:51;4.53;;;3.47;;
48875;SDS011;34689;51.644;5.618;2022-08-16T04:03:19;4.70;;;3.72;;
48875;SDS011;34689;51.644;5.618;2022-08-16T04:05:45;4.00;;;3.40;;
48875;SDS011;34689;51.644;5.618;2022-08-16T04:08:12;10.05;;;4.35;;
48875;SDS011;34689;51.644;5.618;2022-08-16T04:10:39;4.60;;;3.45;;
48875;SDS011;34689;51.644;5.618;2022-08-16T04:13:05;4.47;;;3.30;;
48875;SDS011;34689;51.644;5.618;2022-08-16T04:15:31;3.30;;;2.88;;
48875;SDS011;34689;51.644;5.618;2022-08-16T04:17:57;5.55;;;3.65;;
48875;SDS011;34689;51.644;5.618;2022-08-16T04:20:26;4.72;;;3.78;;
48875;SDS011;34689;51.644;5.618;2022-08-16T04:22:52;4.13;;;3.35;;
48875;SDS011;34689;51.644;5.618;2022-08-16T04:25:18;6.05;;;3.20;;
48875;SDS011;34689;51.644;5.618;2022-08-16T04:27:44;4.07;;;3.15;;
48875;SDS011;34689;51.644;5.618;2022-08-16T04:30:11;6.22;;;3.85;;
48875;SDS011;34689;51.644;5.618;2022-08-16T04:32:39;5.80;;;3.60;;
48875;SDS011;34689;51.644;5.618;2022-08-16T04:35:09;3.92;;;2.97;;
48875;SDS011;34689;51.644;5.618;2022-08-16T04:37:37;3.95;;;2.95;;
48875;SDS011;34689;51.644;5.618;2022-08-16T04:40:03;3.97;;;3.55;;
48875;SDS011;34689;51.644;5.618;2022-08-16T04:42:30;3.50;;;2.65;;
48875;SDS011;34689;51.644;5.618;2022-08-16T04:44:56;4.90;;;3.63;;
48875;SDS011;34689;51.644;5.618;2022-08-16T04:47:26;5.50;;;3.92;;
48875;SDS011;34689;51.644;5.618;2022-08-16T04:49:55;5.18;;;3.25;;
48875;SDS011;34689;51.644;5.618;2022-08-16T04:52:21;3.78;;;3.05;;
48875;SDS011;34689;51.644;5.618;2022-08-16T04:54:47;6.30;;;3.50;;
48875;SDS011;34689;51.644;5.618;2022-08-16T04:57:13;4.50;;;3.47;;
48875;SDS011;34689;51.644;5.618;2022-08-16T04:59:40;4.03;;;2.85;;
48875;SDS011;34689;51.644;5.618;2022-08-16T05:02:06;4.00;;;3.25;;
48875;SDS011;34689;51.644;5.618;2022-08-16T05:04:31;4.82;;;3.15;;
48875;SDS011;34689;51.644;5.618;2022-08-16T05:06:57;3.97;;;3.20;;
48875;SDS011;34689;51.644;5.618;2022-08-16T05:09:23;5.53;;;4.05;;
48875;SDS011;34689;51.644;5.618;2022-08-16T05:11:49;6.80;;;3.90;;
48875;SDS011;34689;51.644;5.618;2022-08-16T05:14:14;6.47;;;4.68;;
48875;SDS011;34689;51.644;5.618;2022-08-16T05:16:40;5.07;;;2.97;;
48875;SDS011;34689;51.644;5.618;2022-08-16T05:19:07;5.50;;;3.60;;
48875;SDS011;34689;51.644;5.618;2022-08-16T05:21:33;6.43;;;3.40;;
48875;SDS011;34689;51.644;5.618;2022-08-16T05:24:00;4.63;;;3.83;;
48875;SDS011;34689;51.644;5.618;2022-08-16T05:26:27;6.30;;;4.03;;
48875;SDS011;34689;51.644;5.618;2022-08-16T05:28:58;6.18;;;4.78;;
48875;SDS011;34689;51.644;5.618;2022-08-16T05:31:28;8.20;;;4.13;;
48875;SDS011;34689;51.644;5.618;2022-08-16T05:33:58;7.32;;;4.95;;
48875;SDS011;34689;51.644;5.618;2022-08-16T05:36:25;4.90;;;3.80;;
48875;SDS011;34689;51.644;5.618;2022-08-16T05:38:52;5.03;;;3.88;;
48875;SDS011;34689;51.644;5.618;2022-08-16T05:41:17;4.80;;;3.25;;
48875;SDS011;34689;51.644;5.618;2022-08-16T05:43:43;6.00;;;3.80;;
48875;SDS011;34689;51.644;5.618;2022-08-16T05:46:10;4.00;;;3.22;;
48875;SDS011;34689;51.644;5.618;2022-08-16T05:48:37;5.97;;;4.53;;
48875;SDS011;34689;51.644;5.618;2022-08-16T05:51:02;12.73;;;5.15;;
48875;SDS011;34689;51.644;5.618;2022-08-16T05:53:28;10.70;;;5.03;;
48875;SDS011;34689;51.644;5.618;2022-08-16T05:55:54;8.05;;;4.70;;
48875;SDS011;34689;51.644;5.618;2022-08-16T05:58:20;6.60;;;5.07;;
48875;SDS011;34689;51.644;5.618;2022-08-16T06:00:46;5.88;;;4.72;;
48875;SDS011;34689;51.644;5.618;2022-08-16T06:03:11;7.00;;;5.18;;
48875;SDS011;34689;51.644;5.618;2022-08-16T06:05:37;9.48;;;5.50;;
48875;SDS011;34689;51.644;5.618;2022-08-16T06:08:03;11.85;;;7.53;;
48875;SDS011;34689;51.644;5.618;2022-08-16T06:10:29;8.77;;;6.57;;
48875;SDS011;34689;51.644;5.618;2022-08-16T06:12:55;7.28;;;5.13;;
48875;SDS011;34689;51.644;5.618;2022-08-16T06:15:21;9.65;;;6.95;;
48875;SDS011;34689;51.644;5.618;2022-08-16T06:17:47;9.05;;;6.40;;
48875;SDS011;34689;51.644;5.618;2022-08-16T06:20:20;8.88;;;5.57;;
48875;SDS011;34689;51.644;5.618;2022-08-16T06:22:47;9.93;;;6.85;;
48875;SDS011;34689;51.644;5.618;2022-08-16T06:25:14;9.73;;;6.15;;
48875;SDS011;34689;51.644;5.618;2022-08-16T06:27:40;11.88;;;6.55;;
48875;SDS011;34689;51.644;5.618;2022-08-16T06:30:07;8.82;;;5.60;;
48875;SDS011;34689;51.644;5.618;2022-08-16T06:32:34;9.77;;;6.25;;
48875;SDS011;34689;51.644;5.618;2022-08-16T06:35:00;6.95;;;5.53;;
48875;SDS011;34689;51.644;5.618;2022-08-16T06:37:26;8.45;;;5.97;;
48875;SDS011;34689;51.644;5.618;2022-08-16T06:39:51;8.85;;;6.38;;
48875;SDS011;34689;51.644;5.618;2022-08-16T06:42:17;8.07;;;6.40;;
48875;SDS011;34689;51.644;5.618;2022-08-16T06:44:43;10.23;;;6.35;;
48875;SDS011;34689;51.644;5.618;2022-08-16T06:47:09;6.82;;;5.32;;
48875;SDS011;34689;51.644;5.618;2022-08-16T06:49:37;11.02;;;6.43;;
48875;SDS011;34689;51.644;5.618;2022-08-16T06:52:03;7.10;;;5.18;;
48875;SDS011;34689;51.644;5.618;2022-08-16T06:54:28;8.48;;;6.15;;
48875;SDS011;34689;51.644;5.618;2022-08-16T06:56:54;6.88;;;4.78;;
48875;SDS011;34689;51.644;5.618;2022-08-16T06:59:20;10.77;;;6.45;;
48875;SDS011;34689;51.644;5.618;2022-08-16T07:01:46;9.65;;;6.95;;
48875;SDS011;34689;51.644;5.618;2022-08-16T07:04:13;9.75;;;7.28;;
48875;SDS011;34689;51.644;5.618;2022-08-16T07:06:40;10.50;;;7.63;;
48875;SDS011;34689;51.644;5.618;2022-08-16T07:09:06;9.13;;;7.00;;
48875;SDS011;34689;51.644;5.618;2022-08-16T07:11:32;13.30;;;8.98;;
48875;SDS011;34689;51.644;5.618;2022-08-16T07:13:58;7.32;;;6.05;;
48875;SDS011;34689;51.644;5.618;2022-08-16T07:16:24;8.57;;;6.72;;
48875;SDS011;34689;51.644;5.618;2022-08-16T07:18:50;10.35;;;6.68;;
48875;SDS011;34689;51.644;5.618;2022-08-16T07:21:17;9.10;;;5.55;;
48875;SDS011;34689;51.644;5.618;2022-08-16T07:23:43;7.20;;;5.00;;
48875;SDS011;34689;51.644;5.618;2022-08-16T07:26:17;6.80;;;4.38;;
48875;SDS011;34689;51.644;5.618;2022-08-16T07:28:45;8.73;;;6.40;;
48875;SDS011;34689;51.644;5.618;2022-08-16T07:31:11;7.90;;;4.40;;
48875;SDS011;34689;51.644;5.618;2022-08-16T07:33:37;9.63;;;5.97;;
48875;SDS011;34689;51.644;5.618;2022-08-16T07:36:04;8.30;;;5.82;;
48875;SDS011;34689;51.644;5.618;2022-08-16T07:38:30;5.85;;;4.43;;
48875;SDS011;34689;51.644;5.618;2022-08-16T07:40:56;6.07;;;4.93;;
48875;SDS011;34689;51.644;5.618;2022-08-16T07:43:22;9.20;;;5.28;;
48875;SDS011;34689;51.644;5.618;2022-08-16T07:45:48;6.78;;;5.07;;
48875;SDS011;34689;51.644;5.618;2022-08-16T07:48:14;8.98;;;5.25;;
48875;SDS011;34689;51.644;5.618;2022-08-16T07:50:41;6.18;;;4.85;;
48875;SDS011;34689;51.644;5.618;2022-08-16T07:53:07;6.88;;;5.28;;
48875;SDS011;34689;51.644;5.618;2022-08-16T07:55:33;10.45;;;5.70;;
48875;SDS011;34689;51.644;5.618;2022-08-16T07:58:00;5.38;;;4.25;;
48875;SDS011;34689;51.644;5.618;2022-08-16T08:00:26;7.05;;;5.15;;
48875;SDS011;34689;51.644;5.618;2022-08-16T08:02:52;6.45;;;4.45;;
48875;SDS011;34689;51.644;5.618;2022-08-16T08:05:19;6.72;;;5.18;;
48875;SDS011;34689;51.644;5.618;2022-08-16T08:07:47;8.48;;;6.68;;
48875;SDS011;34689;51.644;5.618;2022-08-16T08:10:13;6.68;;;4.88;;
48875;SDS011;34689;51.644;5.618;2022-08-16T08:12:40;4.50;;;3.42;;
48875;SDS011;34689;51.644;5.618;2022-08-16T08:15:08;4.88;;;3.83;;
48875;SDS011;34689;51.644;5.618;2022-08-16T08:17:36;6.95;;;4.65;;
48875;SDS011;34689;51.644;5.618;2022-08-16T08:20:07;9.85;;;5.07;;
48875;SDS011;34689;51.644;5.618;2022-08-16T08:22:34;5.80;;;4.35;;
48875;SDS011;34689;51.644;5.618;2022-08-16T08:25:00;4.03;;;2.90;;
48875;SDS011;34689;51.644;5.618;2022-08-16T08:27:27;7.40;;;2.83;;
48875;SDS011;34689;51.644;5.618;2022-08-16T08:29:53;3.90;;;3.22;;
48875;SDS011;34689;51.644;5.618;2022-08-16T08:32:19;4.55;;;3.70;;
48875;SDS011;34689;51.644;5.618;2022-08-16T08:34:45;4.72;;;3.58;;
48875;SDS011;34689;51.644;5.618;2022-08-16T08:37:11;5.80;;;4.93;;
48875;SDS011;34689;51.644;5.618;2022-08-16T08:39:38;8.40;;;4.85;;
48875;SDS011;34689;51.644;5.618;2022-08-16T08:42:04;5.38;;;3.90;;
48875;SDS011;34689;51.644;5.618;2022-08-16T08:44:31;4.65;;;3.97;;
48875;SDS011;34689;51.644;5.618;2022-08-16T08:46:58;4.50;;;3.20;;
48875;SDS011;34689;51.644;5.618;2022-08-16T08:49:26;5.38;;;4.32;;
48875;SDS011;34689;51.644;5.618;2022-08-16T08:51:53;8.35;;;4.78;;
48875;SDS011;34689;51.644;5.618;2022-08-16T08:54:18;3.72;;;2.92;;
48875;SDS011;34689;51.644;5.618;2022-08-16T08:56:44;5.32;;;3.47;;
48875;SDS011;34689;51.644;5.618;2022-08-16T08:59:10;5.18;;;3.42;;
48875;SDS011;34689;51.644;5.618;2022-08-16T09:01:37;5.93;;;3.40;;
48875;SDS011;34689;51.644;5.618;2022-08-16T09:04:05;3.53;;;3.05;;
48875;SDS011;34689;51.644;5.618;2022-08-16T09:06:31;3.45;;;2.90;;
48875;SDS011;34689;51.644;5.618;2022-08-16T09:08:59;5.10;;;3.15;;
48875;SDS011;34689;51.644;5.618;2022-08-16T09:11:25;5.20;;;2.90;;
48875;SDS011;34689;51.644;5.618;2022-08-16T09:13:52;6.63;;;3.88;;
48875;SDS011;34689;51.644;5.618;2022-08-16T09:16:18;7.45;;;3.40;;
48875;SDS011;34689;51.644;5.618;2022-08-16T09:18:44;3.83;;;2.80;;
48875;SDS011;34689;51.644;5.618;2022-08-16T09:21:10;6.20;;;3.45;;
48875;SDS011;34689;51.644;5.618;2022-08-16T09:23:38;3.22;;;2.50;;
48875;SDS011;34689;51.644;5.618;2022-08-16T09:26:05;2.88;;;2.40;;
48875;SDS011;34689;51.644;5.618;2022-08-16T09:28:35;3.72;;;2.78;;
48875;SDS011;34689;51.644;5.618;2022-08-16T09:31:02;4.15;;;2.97;;
48875;SDS011;34689;51.644;5.618;2022-08-16T09:33:34;4.90;;;3.40;;
48875;SDS011;34689;51.644;5.618;2022-08-16T09:35:59;3.35;;;2.80;;
48875;SDS011;34689;51.644;5.618;2022-08-16T09:38:25;3.63;;;2.88;;
48875;SDS011;34689;51.644;5.618;2022-08-16T09:40:51;3.65;;;2.35;;
48875;SDS011;34689;51.644;5.618;2022-08-16T09:43:21;3.50;;;2.67;;
48875;SDS011;34689;51.644;5.618;2022-08-16T09:45:49;3.08;;;2.75;;
48875;SDS011;34689;51.644;5.618;2022-08-16T09:48:15;3.75;;;3.45;;
48875;SDS011;34689;51.644;5.618;2022-08-16T09:50:43;3.58;;;3.13;;
48875;SDS011;34689;51.644;5.618;2022-08-16T09:53:11;6.05;;;3.13;;
48875;SDS011;34689;51.644;5.618;2022-08-16T09:55:40;5.10;;;2.83;;
48875;SDS011;34689;51.644;5.618;2022-08-16T09:58:07;3.70;;;2.88;;
48875;SDS011;34689;51.644;5.618;2022-08-16T10:00:33;4.78;;;2.78;;
48875;SDS011;34689;51.644;5.618;2022-08-16T10:02:59;3.00;;;2.30;;
48875;SDS011;34689;51.644;5.618;2022-08-16T10:05:25;2.53;;;2.08;;
48875;SDS011;34689;51.644;5.618;2022-08-16T10:07:51;3.33;;;2.53;;
48875;SDS011;34689;51.644;5.618;2022-08-16T10:10:18;3.80;;;2.20;;
48875;SDS011;34689;51.644;5.618;2022-08-16T10:12:45;2.42;;;1.73;;
48875;SDS011;34689;51.644;5.618;2022-08-16T10:15:30;2.95;;;2.67;;
48875;SDS011;34689;51.644;5.618;2022-08-16T10:18:01;3.55;;;2.42;;
48875;SDS011;34689;51.644;5.618;2022-08-16T10:20:32;2.33;;;1.73;;
48875;SDS011;34689;51.644;5.618;2022-08-16T10:23:04;3.15;;;2.22;;
48875;SDS011;34689;51.644;5.618;2022-08-16T10:25:33;3.33;;;2.20;;
48875;SDS011;34689;51.644;5.618;2022-08-16T10:28:04;3.93;;;2.17;;
48875;SDS011;34689;51.644;5.618;2022-08-16T10:30:30;2.03;;;1.83;;
48875;SDS011;34689;51.644;5.618;2022-08-16T10:32:55;2.10;;;1.67;;
48875;SDS011;34689;51.644;5.618;2022-08-16T10:35:22;2.25;;;1.20;;
48875;SDS011;34689;51.644;5.618;2022-08-16T10:37:48;1.63;;;1.52;;
48875;SDS011;34689;51.644;5.618;2022-08-16T10:40:15;1.50;;;1.30;;
48875;SDS011;34689;51.644;5.618;2022-08-16T10:42:41;3.00;;;1.50;;
48875;SDS011;34689;51.644;5.618;2022-08-16T10:45:10;1.40;;;1.30;;
48875;SDS011;34689;51.644;5.618;2022-08-16T10:47:36;2.47;;;1.60;;
48875;SDS011;34689;51.644;5.618;2022-08-16T10:50:03;1.70;;;1.40;;
48875;SDS011;34689;51.644;5.618;2022-08-16T10:52:30;1.48;;;1.38;;
48875;SDS011;34689;51.644;5.618;2022-08-16T10:54:57;4.93;;;1.40;;
48875;SDS011;34689;51.644;5.618;2022-08-16T10:57:24;3.60;;;1.58;;
48875;SDS011;34689;51.644;5.618;2022-08-16T10:59:52;4.72;;;2.15;;
48875;SDS011;34689;51.644;5.618;2022-08-16T11:02:18;2.15;;;1.65;;
48875;SDS011;34689;51.644;5.618;2022-08-16T11:04:44;3.63;;;1.77;;
48875;SDS011;34689;51.644;5.618;2022-08-16T11:07:10;3.05;;;2.15;;
48875;SDS011;34689;51.644;5.618;2022-08-16T11:09:36;3.38;;;1.30;;
48875;SDS011;34689;51.644;5.618;2022-08-16T11:12:02;2.00;;;1.35;;
48875;SDS011;34689;51.644;5.618;2022-08-16T11:14:30;3.10;;;1.50;;
48875;SDS011;34689;51.644;5.618;2022-08-16T11:16:56;3.42;;;1.80;;
48875;SDS011;34689;51.644;5.618;2022-08-16T11:19:24;4.22;;;1.50;;
48875;SDS011;34689;51.644;5.618;2022-08-16T11:21:49;1.92;;;1.50;;
48875;SDS011;34689;51.644;5.618;2022-08-16T11:24:15;2.63;;;2.35;;
48875;SDS011;34689;51.644;5.618;2022-08-16T11:26:41;3.33;;;1.58;;
48875;SDS011;34689;51.644;5.618;2022-08-16T11:29:07;2.28;;;1.70;;
48875;SDS011;34689;51.644;5.618;2022-08-16T11:31:33;2.67;;;1.70;;
48875;SDS011;34689;51.644;5.618;2022-08-16T11:33:59;2.20;;;1.50;;
48875;SDS011;34689;51.644;5.618;2022-08-16T11:36:25;2.25;;;1.73;;
48875;SDS011;34689;51.644;5.618;2022-08-16T11:38:51;2.75;;;1.70;;
48875;SDS011;34689;51.644;5.618;2022-08-16T11:41:17;1.52;;;1.30;;
48875;SDS011;34689;51.644;5.618;2022-08-16T11:43:43;2.92;;;1.77;;
48875;SDS011;34689;51.644;5.618;2022-08-16T11:46:11;1.92;;;1.48;;
48875;SDS011;34689;51.644;5.618;2022-08-16T11:48:38;2.15;;;1.40;;
48875;SDS011;34689;51.644;5.618;2022-08-16T11:51:04;1.90;;;1.50;;
48875;SDS011;34689;51.644;5.618;2022-08-16T11:53:31;1.98;;;1.30;;
48875;SDS011;34689;51.644;5.618;2022-08-16T11:55:57;1.98;;;1.50;;
48875;SDS011;34689;51.644;5.618;2022-08-16T11:58:24;1.73;;;1.45;;
48875;SDS011;34689;51.644;5.618;2022-08-16T12:00:52;3.00;;;1.20;;
48875;SDS011;34689;51.644;5.618;2022-08-16T12:03:23;1.83;;;1.60;;
48875;SDS011;34689;51.644;5.618;2022-08-16T12:05:55;4.65;;;1.60;;
48875;SDS011;34689;51.644;5.618;2022-08-16T12:08:21;1.30;;;1.20;;
48875;SDS011;34689;51.644;5.618;2022-08-16T12:10:48;2.15;;;1.52;;
48875;SDS011;34689;51.644;5.618;2022-08-16T12:13:14;1.58;;;1.48;;
48875;SDS011;34689;51.644;5.618;2022-08-16T12:15:40;2.97;;;1.42;;
48875;SDS011;34689;51.644;5.618;2022-08-16T12:18:06;1.25;;;1.15;;
48875;SDS011;34689;51.644;5.618;2022-08-16T12:20:34;1.40;;;1.30;;
48875;SDS011;34689;51.644;5.618;2022-08-16T12:23:01;2.28;;;1.33;;
48875;SDS011;34689;51.644;5.618;2022-08-16T12:25:28;2.95;;;1.52;;
48875;SDS011;34689;51.644;5.618;2022-08-16T12:27:55;2.17;;;1.65;;
48875;SDS011;34689;51.644;5.618;2022-08-16T12:30:23;3.22;;;1.35;;
48875;SDS011;34689;51.644;5.618;2022-08-16T12:32:52;3.72;;;1.55;;
48875;SDS011;34689;51.644;5.618;2022-08-16T12:35:22;1.75;;;1.27;;
48875;SDS011;34689;51.644;5.618;2022-08-16T12:37:49;1.88;;;1.40;;
48875;SDS011;34689;51.644;5.618;2022-08-16T12:40:19;1.77;;;1.20;;
48875;SDS011;34689;51.644;5.618;2022-08-16T12:42:47;3.03;;;1.55;;
48875;SDS011;34689;51.644;5.618;2022-08-16T12:45:15;1.50;;;1.13;;
48875;SDS011;34689;51.644;5.618;2022-08-16T12:47:43;2.20;;;1.50;;
48875;SDS011;34689;51.644;5.618;2022-08-16T12:50:28;1.83;;;1.52;;
48875;SDS011;34689;51.644;5.618;2022-08-16T12:52:54;2.17;;;1.33;;
48875;SDS011;34689;51.644;5.618;2022-08-16T12:55:20;1.63;;;1.30;;
48875;SDS011;34689;51.644;5.618;2022-08-16T12:57:47;1.83;;;1.35;;
48875;SDS011;34689;51.644;5.618;2022-08-16T13:00:17;1.10;;;1.00;;
48875;SDS011;34689;51.644;5.618;2022-08-16T13:02:43;2.15;;;1.20;;
48875;SDS011;34689;51.644;5.618;2022-08-16T13:05:11;1.48;;;1.27;;
48875;SDS011;34689;51.644;5.618;2022-08-16T13:07:41;9.85;;;1.60;;
48875;SDS011;34689;51.644;5.618;2022-08-16T13:10:08;1.42;;;0.90;;
48875;SDS011;34689;51.644;5.618;2022-08-16T13:12:39;1.25;;;1.13;;
48875;SDS011;34689;51.644;5.618;2022-08-16T13:15:09;1.80;;;1.50;;
48875;SDS011;34689;51.644;5.618;2022-08-16T13:17:37;1.70;;;1.60;;
48875;SDS011;34689;51.644;5.618;2022-08-16T13:20:05;1.48;;;1.33;;
48875;SDS011;34689;51.644;5.618;2022-08-16T13:22:32;2.10;;;1.50;;
48875;SDS011;34689;51.644;5.618;2022-08-16T13:25:00;2.35;;;1.45;;
48875;SDS011;34689;51.644;5.618;2022-08-16T13:27:26;1.60;;;1.48;;
48875;SDS011;34689;51.644;5.618;2022-08-16T13:29:51;4.57;;;1.42;;
48875;SDS011;34689;51.644;5.618;2022-08-16T13:32:17;1.73;;;1.13;;
48875;SDS011;34689;51.644;5.618;2022-08-16T13:34:43;2.03;;;1.80;;
48875;SDS011;34689;51.644;5.618;2022-08-16T13:37:09;2.08;;;1.65;;
48875;SDS011;34689;51.644;5.618;2022-08-16T13:39:36;2.05;;;1.25;;
48875;SDS011;34689;51.644;5.618;2022-08-16T13:42:01;3.05;;;1.10;;
48875;SDS011;34689;51.644;5.618;2022-08-16T13:44:28;2.40;;;1.08;;
48875;SDS011;34689;51.644;5.618;2022-08-16T13:46:55;2.30;;;1.35;;
48875;SDS011;34689;51.644;5.618;2022-08-16T13:49:21;1.38;;;1.25;;
48875;SDS011;34689;51.644;5.618;2022-08-16T13:51:47;1.45;;;1.35;;
48875;SDS011;34689;51.644;5.618;2022-08-16T13:54:13;1.77;;;1.55;;
48875;SDS011;34689;51.644;5.618;2022-08-16T13:56:39;1.60;;;1.48;;
48875;SDS011;34689;51.644;5.618;2022-08-16T13:59:14;2.08;;;1.33;;
48875;SDS011;34689;51.644;5.618;2022-08-16T14:01:41;2.85;;;1.48;;
48875;SDS011;34689;51.644;5.618;2022-08-16T14:04:07;6.85;;;1.20;;
48875;SDS011;34689;51.644;5.618;2022-08-16T14:06:33;3.13;;;1.67;;
48875;SDS011;34689;51.644;5.618;2022-08-16T14:08:59;1.92;;;1.52;;
48875;SDS011;34689;51.644;5.618;2022-08-16T14:11:25;1.55;;;1.40;;
48875;SDS011;34689;51.644;5.618;2022-08-16T14:13:51;2.28;;;1.13;;
48875;SDS011;34689;51.644;5.618;2022-08-16T14:16:17;1.10;;;0.90;;
48875;SDS011;34689;51.644;5.618;2022-08-16T14:18:43;1.42;;;1.10;;
48875;SDS011;34689;51.644;5.618;2022-08-16T14:21:09;1.98;;;1.10;;
48875;SDS011;34689;51.644;5.618;2022-08-16T14:23:35;1.25;;;0.95;;
48875;SDS011;34689;51.644;5.618;2022-08-16T14:26:01;1.45;;;1.20;;
48875;SDS011;34689;51.644;5.618;2022-08-16T14:28:26;2.03;;;1.30;;
48875;SDS011;34689;51.644;5.618;2022-08-16T14:30:52;1.60;;;0.82;;
48875;SDS011;34689;51.644;5.618;2022-08-16T14:33:18;1.33;;;1.23;;
48875;SDS011;34689;51.644;5.618;2022-08-16T14:35:44;2.20;;;1.15;;
48875;SDS011;34689;51.644;5.618;2022-08-16T14:38:10;1.77;;;1.63;;
48875;SDS011;34689;51.644;5.618;2022-08-16T14:40:36;1.30;;;0.95;;
48875;SDS011;34689;51.644;5.618;2022-08-16T14:43:02;1.33;;;1.15;;
48875;SDS011;34689;51.644;5.618;2022-08-16T14:45:30;1.65;;;1.02;;
48875;SDS011;34689;51.644;5.618;2022-08-16T14:47:56;1.80;;;1.23;;
48875;SDS011;34689;51.644;5.618;2022-08-16T14:50:23;1.73;;;1.40;;
48875;SDS011;34689;51.644;5.618;2022-08-16T14:53:00;1.55;;;1.35;;